Sublette, Illinois
Current Conditions -  °F | °C
As of 6:15 PM on Wednesday 28 Jan 2015 (Local Time) from KRPJ Reporting Station
Clear Clear  
Wind Chill: 19°   Ceiling: Unl
Heat Index: 31°   Visibility: 10mi
Dew Point: 27°   Wind: 20mph
Humidity: 83%   Direction: 140°SE
Pressure: 29.92"   Gusts: 28mph
Location:  41.64°N, 89.23°W
Report Text: KRPJ 290015Z AUTO 14017G24KT 10SM CLR 00/M03 A2992 RMK AO2 T10051030
Loading
Personal Weather Stations






























Interactive Weather Map New forecast layout! Learn more

10-Day Weather Forecast

Advertisements
Track Severe Weather on mobile